sensor_id;sensor_type;location;lat;lon;timestamp;P1;durP1;ratioP1;P2;durP2;ratioP2
18084;SDS011;9169;44.492;11.372;2023-04-02T00:02:57;12.60;;;3.70;;
18084;SDS011;9169;44.492;11.372;2023-04-02T00:05:38;13.37;;;4.33;;
18084;SDS011;9169;44.492;11.372;2023-04-02T00:08:21;11.43;;;3.73;;
18084;SDS011;9169;44.492;11.372;2023-04-02T00:10:53;13.53;;;3.40;;
18084;SDS011;9169;44.492;11.372;2023-04-02T00:13:27;18.10;;;4.37;;
18084;SDS011;9169;44.492;11.372;2023-04-02T00:15:59;18.10;;;4.00;;
18084;SDS011;9169;44.492;11.372;2023-04-02T00:18:30;11.00;;;3.27;;
18084;SDS011;9169;44.492;11.372;2023-04-02T00:21:04;14.27;;;3.63;;
18084;SDS011;9169;44.492;11.372;2023-04-02T00:23:37;11.13;;;3.20;;
18084;SDS011;9169;44.492;11.372;2023-04-02T00:26:19;13.10;;;3.80;;
18084;SDS011;9169;44.492;11.372;2023-04-02T00:28:50;11.47;;;3.50;;
18084;SDS011;9169;44.492;11.372;2023-04-02T00:31:19;12.60;;;3.60;;
18084;SDS011;9169;44.492;11.372;2023-04-02T00:33:48;14.40;;;3.87;;
18084;SDS011;9169;44.492;11.372;2023-04-02T00:36:18;8.17;;;3.20;;
18084;SDS011;9169;44.492;11.372;2023-04-02T00:38:48;13.23;;;3.53;;
18084;SDS011;9169;44.492;11.372;2023-04-02T00:41:20;15.03;;;3.40;;
18084;SDS011;9169;44.492;11.372;2023-04-02T00:43:52;12.33;;;3.33;;
18084;SDS011;9169;44.492;11.372;2023-04-02T00:46:24;16.17;;;3.97;;
18084;SDS011;9169;44.492;11.372;2023-04-02T00:48:56;11.17;;;4.20;;
18084;SDS011;9169;44.492;11.372;2023-04-02T00:51:31;12.83;;;3.30;;
18084;SDS011;9169;44.492;11.372;2023-04-02T00:54:03;17.20;;;4.07;;
18084;SDS011;9169;44.492;11.372;2023-04-02T00:56:38;14.83;;;4.40;;
18084;SDS011;9169;44.492;11.372;2023-04-02T00:59:15;10.17;;;3.07;;
18084;SDS011;9169;44.492;11.372;2023-04-02T01:01:50;12.53;;;4.03;;
18084;SDS011;9169;44.492;11.372;2023-04-02T01:04:25;12.13;;;3.67;;
18084;SDS011;9169;44.492;11.372;2023-04-02T01:07:00;16.40;;;4.20;;
18084;SDS011;9169;44.492;11.372;2023-04-02T01:09:37;15.93;;;3.93;;
18084;SDS011;9169;44.492;11.372;2023-04-02T01:12:23;13.67;;;3.80;;
18084;SDS011;9169;44.492;11.372;2023-04-02T01:15:11;15.53;;;3.87;;
18084;SDS011;9169;44.492;11.372;2023-04-02T01:18:01;9.50;;;3.60;;
18084;SDS011;9169;44.492;11.372;2023-04-02T01:20:44;9.57;;;3.70;;
18084;SDS011;9169;44.492;11.372;2023-04-02T01:23:36;11.30;;;3.33;;
18084;SDS011;9169;44.492;11.372;2023-04-02T01:26:13;11.43;;;3.50;;
18084;SDS011;9169;44.492;11.372;2023-04-02T01:28:58;14.97;;;3.70;;
18084;SDS011;9169;44.492;11.372;2023-04-02T01:31:31;12.00;;;3.40;;
18084;SDS011;9169;44.492;11.372;2023-04-02T01:34:01;13.13;;;3.80;;
18084;SDS011;9169;44.492;11.372;2023-04-02T01:36:35;12.60;;;3.60;;
18084;SDS011;9169;44.492;11.372;2023-04-02T01:39:11;12.80;;;3.60;;
18084;SDS011;9169;44.492;11.372;2023-04-02T01:41:48;10.90;;;3.17;;
18084;SDS011;9169;44.492;11.372;2023-04-02T01:44:23;10.47;;;3.47;;
18084;SDS011;9169;44.492;11.372;2023-04-02T01:47:01;8.10;;;3.37;;
18084;SDS011;9169;44.492;11.372;2023-04-02T01:49:32;10.60;;;3.30;;
18084;SDS011;9169;44.492;11.372;2023-04-02T01:52:01;12.80;;;3.53;;
18084;SDS011;9169;44.492;11.372;2023-04-02T01:54:38;12.40;;;3.63;;
18084;SDS011;9169;44.492;11.372;2023-04-02T01:57:08;13.03;;;3.30;;
18084;SDS011;9169;44.492;11.372;2023-04-02T01:59:39;8.57;;;3.27;;
18084;SDS011;9169;44.492;11.372;2023-04-02T02:02:09;10.87;;;3.73;;
18084;SDS011;9169;44.492;11.372;2023-04-02T02:04:41;9.87;;;3.27;;
18084;SDS011;9169;44.492;11.372;2023-04-02T02:07:12;8.57;;;2.97;;
18084;SDS011;9169;44.492;11.372;2023-04-02T02:09:47;14.00;;;3.37;;
18084;SDS011;9169;44.492;11.372;2023-04-02T02:12:16;10.20;;;3.03;;
18084;SDS011;9169;44.492;11.372;2023-04-02T02:14:47;13.70;;;3.63;;
18084;SDS011;9169;44.492;11.372;2023-04-02T02:17:22;9.80;;;3.10;;
18084;SDS011;9169;44.492;11.372;2023-04-02T02:19:56;13.83;;;3.83;;
18084;SDS011;9169;44.492;11.372;2023-04-02T02:22:28;12.30;;;3.13;;
18084;SDS011;9169;44.492;11.372;2023-04-02T02:24:59;14.03;;;3.37;;
18084;SDS011;9169;44.492;11.372;2023-04-02T02:27:39;10.80;;;3.23;;
18084;SDS011;9169;44.492;11.372;2023-04-02T02:30:19;13.80;;;3.80;;
18084;SDS011;9169;44.492;11.372;2023-04-02T02:32:53;14.67;;;3.67;;
18084;SDS011;9169;44.492;11.372;2023-04-02T02:35:27;11.57;;;3.37;;
18084;SDS011;9169;44.492;11.372;2023-04-02T02:38:02;9.90;;;3.60;;
18084;SDS011;9169;44.492;11.372;2023-04-02T02:40:49;11.70;;;3.10;;
18084;SDS011;9169;44.492;11.372;2023-04-02T02:43:21;11.90;;;3.60;;
18084;SDS011;9169;44.492;11.372;2023-04-02T02:45:52;12.23;;;3.77;;
18084;SDS011;9169;44.492;11.372;2023-04-02T02:48:33;12.70;;;4.00;;
18084;SDS011;9169;44.492;11.372;2023-04-02T02:51:06;12.53;;;3.63;;
18084;SDS011;9169;44.492;11.372;2023-04-02T02:53:45;10.10;;;3.50;;
18084;SDS011;9169;44.492;11.372;2023-04-02T02:56:18;17.13;;;3.80;;
18084;SDS011;9169;44.492;11.372;2023-04-02T02:58:49;9.30;;;3.70;;
18084;SDS011;9169;44.492;11.372;2023-04-02T03:01:24;18.37;;;4.13;;
18084;SDS011;9169;44.492;11.372;2023-04-02T03:03:57;14.53;;;4.10;;
18084;SDS011;9169;44.492;11.372;2023-04-02T03:06:27;11.07;;;3.60;;
18084;SDS011;9169;44.492;11.372;2023-04-02T03:09:00;12.27;;;3.70;;
18084;SDS011;9169;44.492;11.372;2023-04-02T03:11:38;12.60;;;3.47;;
18084;SDS011;9169;44.492;11.372;2023-04-02T03:14:17;12.37;;;3.50;;
18084;SDS011;9169;44.492;11.372;2023-04-02T03:16:55;13.10;;;3.47;;
18084;SDS011;9169;44.492;11.372;2023-04-02T03:19:27;11.73;;;3.20;;
18084;SDS011;9169;44.492;11.372;2023-04-02T03:22:04;12.20;;;3.10;;
18084;SDS011;9169;44.492;11.372;2023-04-02T03:24:40;9.53;;;3.40;;
18084;SDS011;9169;44.492;11.372;2023-04-02T03:27:17;15.23;;;4.13;;
18084;SDS011;9169;44.492;11.372;2023-04-02T03:29:57;11.10;;;3.30;;
18084;SDS011;9169;44.492;11.372;2023-04-02T03:32:36;10.53;;;3.40;;
18084;SDS011;9169;44.492;11.372;2023-04-02T03:35:09;15.70;;;3.70;;
18084;SDS011;9169;44.492;11.372;2023-04-02T03:37:49;11.67;;;3.63;;
18084;SDS011;9169;44.492;11.372;2023-04-02T03:40:24;12.50;;;3.90;;
18084;SDS011;9169;44.492;11.372;2023-04-02T03:42:57;12.93;;;3.73;;
18084;SDS011;9169;44.492;11.372;2023-04-02T03:45:32;14.37;;;3.70;;
18084;SDS011;9169;44.492;11.372;2023-04-02T03:48:08;13.20;;;4.30;;
18084;SDS011;9169;44.492;11.372;2023-04-02T03:50:43;12.10;;;4.00;;
18084;SDS011;9169;44.492;11.372;2023-04-02T03:53:14;10.90;;;3.57;;
18084;SDS011;9169;44.492;11.372;2023-04-02T03:55:43;9.43;;;3.13;;
18084;SDS011;9169;44.492;11.372;2023-04-02T03:58:15;13.90;;;4.30;;
18084;SDS011;9169;44.492;11.372;2023-04-02T04:00:48;15.90;;;3.63;;
18084;SDS011;9169;44.492;11.372;2023-04-02T04:03:24;12.20;;;3.30;;
18084;SDS011;9169;44.492;11.372;2023-04-02T04:05:58;13.23;;;3.47;;
18084;SDS011;9169;44.492;11.372;2023-04-02T04:08:33;13.83;;;4.00;;
18084;SDS011;9169;44.492;11.372;2023-04-02T04:11:08;14.53;;;3.93;;
18084;SDS011;9169;44.492;11.372;2023-04-02T04:13:43;10.43;;;3.93;;
18084;SDS011;9169;44.492;11.372;2023-04-02T04:16:15;11.33;;;4.03;;
18084;SDS011;9169;44.492;11.372;2023-04-02T04:18:50;14.97;;;4.00;;
18084;SDS011;9169;44.492;11.372;2023-04-02T04:21:28;17.13;;;3.90;;
18084;SDS011;9169;44.492;11.372;2023-04-02T04:24:24;13.40;;;3.67;;
18084;SDS011;9169;44.492;11.372;2023-04-02T04:26:59;12.87;;;3.37;;
18084;SDS011;9169;44.492;11.372;2023-04-02T04:29:40;11.60;;;3.40;;
18084;SDS011;9169;44.492;11.372;2023-04-02T04:32:18;12.53;;;3.90;;
18084;SDS011;9169;44.492;11.372;2023-04-02T04:34:58;14.83;;;3.87;;
18084;SDS011;9169;44.492;11.372;2023-04-02T04:37:30;16.20;;;3.70;;
18084;SDS011;9169;44.492;11.372;2023-04-02T04:40:09;14.27;;;3.67;;
18084;SDS011;9169;44.492;11.372;2023-04-02T04:42:43;11.37;;;3.47;;
18084;SDS011;9169;44.492;11.372;2023-04-02T04:45:20;13.97;;;4.23;;
18084;SDS011;9169;44.492;11.372;2023-04-02T04:48:03;12.73;;;3.47;;
18084;SDS011;9169;44.492;11.372;2023-04-02T04:50:37;13.73;;;4.47;;
18084;SDS011;9169;44.492;11.372;2023-04-02T04:53:14;13.63;;;3.93;;
18084;SDS011;9169;44.492;11.372;2023-04-02T04:55:48;14.23;;;3.67;;
18084;SDS011;9169;44.492;11.372;2023-04-02T04:58:20;15.43;;;3.77;;
18084;SDS011;9169;44.492;11.372;2023-04-02T05:00:54;12.23;;;3.50;;
18084;SDS011;9169;44.492;11.372;2023-04-02T05:03:29;15.90;;;4.40;;
18084;SDS011;9169;44.492;11.372;2023-04-02T05:06:08;12.60;;;3.30;;
18084;SDS011;9169;44.492;11.372;2023-04-02T05:08:42;10.73;;;3.67;;
18084;SDS011;9169;44.492;11.372;2023-04-02T05:11:15;11.00;;;3.50;;
18084;SDS011;9169;44.492;11.372;2023-04-02T05:13:52;10.13;;;3.77;;
18084;SDS011;9169;44.492;11.372;2023-04-02T05:16:25;14.17;;;3.70;;
18084;SDS011;9169;44.492;11.372;2023-04-02T05:19:00;13.90;;;4.17;;
18084;SDS011;9169;44.492;11.372;2023-04-02T05:21:37;9.70;;;3.37;;
18084;SDS011;9169;44.492;11.372;2023-04-02T05:24:26;9.53;;;2.87;;
18084;SDS011;9169;44.492;11.372;2023-04-02T05:27:15;15.40;;;3.90;;
18084;SDS011;9169;44.492;11.372;2023-04-02T05:29:52;14.10;;;4.37;;
18084;SDS011;9169;44.492;11.372;2023-04-02T05:32:28;13.60;;;3.80;;
18084;SDS011;9169;44.492;11.372;2023-04-02T05:35:02;11.93;;;3.60;;
18084;SDS011;9169;44.492;11.372;2023-04-02T05:37:37;14.20;;;3.87;;
18084;SDS011;9169;44.492;11.372;2023-04-02T05:40:09;14.77;;;3.73;;
18084;SDS011;9169;44.492;11.372;2023-04-02T05:42:47;11.73;;;3.80;;
18084;SDS011;9169;44.492;11.372;2023-04-02T05:45:19;15.60;;;4.33;;
18084;SDS011;9169;44.492;11.372;2023-04-02T05:47:56;13.57;;;3.53;;
18084;SDS011;9169;44.492;11.372;2023-04-02T05:50:36;14.63;;;3.50;;
18084;SDS011;9169;44.492;11.372;2023-04-02T05:53:18;11.80;;;3.60;;
18084;SDS011;9169;44.492;11.372;2023-04-02T05:55:54;10.27;;;3.43;;
18084;SDS011;9169;44.492;11.372;2023-04-02T05:58:32;9.67;;;3.50;;
18084;SDS011;9169;44.492;11.372;2023-04-02T06:01:19;11.10;;;3.53;;
18084;SDS011;9169;44.492;11.372;2023-04-02T06:04:04;11.67;;;3.40;;
18084;SDS011;9169;44.492;11.372;2023-04-02T06:06:45;17.50;;;3.70;;
18084;SDS011;9169;44.492;11.372;2023-04-02T06:09:23;11.80;;;4.37;;
18084;SDS011;9169;44.492;11.372;2023-04-02T06:12:03;13.57;;;4.00;;
18084;SDS011;9169;44.492;11.372;2023-04-02T06:14:40;12.77;;;4.40;;
18084;SDS011;9169;44.492;11.372;2023-04-02T06:17:10;12.43;;;5.07;;
18084;SDS011;9169;44.492;11.372;2023-04-02T06:19:42;14.20;;;5.07;;
18084;SDS011;9169;44.492;11.372;2023-04-02T06:22:15;14.63;;;5.03;;
18084;SDS011;9169;44.492;11.372;2023-04-02T06:24:56;15.00;;;4.90;;
18084;SDS011;9169;44.492;11.372;2023-04-02T06:27:31;10.97;;;4.50;;
18084;SDS011;9169;44.492;11.372;2023-04-02T06:30:02;9.27;;;3.63;;
18084;SDS011;9169;44.492;11.372;2023-04-02T06:32:34;21.03;;;5.60;;
18084;SDS011;9169;44.492;11.372;2023-04-02T06:35:04;13.70;;;4.20;;
18084;SDS011;9169;44.492;11.372;2023-04-02T06:37:37;13.57;;;4.30;;
18084;SDS011;9169;44.492;11.372;2023-04-02T06:40:32;10.73;;;3.80;;
18084;SDS011;9169;44.492;11.372;2023-04-02T06:43:14;12.73;;;4.60;;
18084;SDS011;9169;44.492;11.372;2023-04-02T06:46:04;11.27;;;4.30;;
18084;SDS011;9169;44.492;11.372;2023-04-02T06:48:54;14.47;;;3.87;;
18084;SDS011;9169;44.492;11.372;2023-04-02T06:51:28;11.70;;;4.10;;
18084;SDS011;9169;44.492;11.372;2023-04-02T06:54:01;10.87;;;4.00;;
18084;SDS011;9169;44.492;11.372;2023-04-02T06:56:37;11.00;;;5.10;;
18084;SDS011;9169;44.492;11.372;2023-04-02T06:59:12;11.00;;;4.47;;
18084;SDS011;9169;44.492;11.372;2023-04-02T07:01:42;14.47;;;4.30;;
18084;SDS011;9169;44.492;11.372;2023-04-02T07:04:14;17.53;;;4.17;;
18084;SDS011;9169;44.492;11.372;2023-04-02T07:06:45;15.63;;;6.97;;
18084;SDS011;9169;44.492;11.372;2023-04-02T07:09:15;25.63;;;13.43;;
18084;SDS011;9169;44.492;11.372;2023-04-02T07:11:49;17.60;;;7.10;;
18084;SDS011;9169;44.492;11.372;2023-04-02T07:14:19;11.80;;;5.30;;
18084;SDS011;9169;44.492;11.372;2023-04-02T07:16:47;9.67;;;4.77;;
18084;SDS011;9169;44.492;11.372;2023-04-02T07:19:17;10.43;;;4.63;;
18084;SDS011;9169;44.492;11.372;2023-04-02T07:21:51;16.57;;;8.90;;
18084;SDS011;9169;44.492;11.372;2023-04-02T07:24:21;12.63;;;4.93;;
18084;SDS011;9169;44.492;11.372;2023-04-02T07:26:51;11.63;;;5.43;;
18084;SDS011;9169;44.492;11.372;2023-04-02T07:29:20;16.63;;;7.43;;
18084;SDS011;9169;44.492;11.372;2023-04-02T07:31:48;15.43;;;7.60;;
18084;SDS011;9169;44.492;11.372;2023-04-02T07:34:19;12.30;;;5.37;;
18084;SDS011;9169;44.492;11.372;2023-04-02T07:36:48;12.77;;;6.10;;
18084;SDS011;9169;44.492;11.372;2023-04-02T07:39:17;12.20;;;5.53;;
18084;SDS011;9169;44.492;11.372;2023-04-02T07:41:49;18.23;;;9.70;;
18084;SDS011;9169;44.492;11.372;2023-04-02T07:44:20;27.00;;;17.33;;
18084;SDS011;9169;44.492;11.372;2023-04-02T07:46:48;14.80;;;7.80;;
18084;SDS011;9169;44.492;11.372;2023-04-02T07:49:17;15.53;;;8.47;;
18084;SDS011;9169;44.492;11.372;2023-04-02T07:51:46;16.27;;;8.13;;
18084;SDS011;9169;44.492;11.372;2023-04-02T07:54:14;21.57;;;10.43;;
18084;SDS011;9169;44.492;11.372;2023-04-02T07:56:43;17.83;;;9.70;;
18084;SDS011;9169;44.492;11.372;2023-04-02T07:59:13;16.87;;;12.03;;
18084;SDS011;9169;44.492;11.372;2023-04-02T08:01:41;22.70;;;10.63;;
18084;SDS011;9169;44.492;11.372;2023-04-02T08:04:15;17.87;;;11.93;;
18084;SDS011;9169;44.492;11.372;2023-04-02T08:06:45;19.67;;;11.40;;
18084;SDS011;9169;44.492;11.372;2023-04-02T08:09:14;18.43;;;12.77;;
18084;SDS011;9169;44.492;11.372;2023-04-02T08:11:43;17.23;;;12.03;;
18084;SDS011;9169;44.492;11.372;2023-04-02T08:14:13;20.30;;;13.60;;
18084;SDS011;9169;44.492;11.372;2023-04-02T08:16:43;21.10;;;12.90;;
18084;SDS011;9169;44.492;11.372;2023-04-02T08:19:15;20.73;;;12.83;;
18084;SDS011;9169;44.492;11.372;2023-04-02T08:21:45;20.53;;;13.50;;
18084;SDS011;9169;44.492;11.372;2023-04-02T08:24:16;21.37;;;13.27;;
18084;SDS011;9169;44.492;11.372;2023-04-02T08:26:45;21.70;;;13.37;;
18084;SDS011;9169;44.492;11.372;2023-04-02T08:29:15;19.90;;;15.50;;
18084;SDS011;9169;44.492;11.372;2023-04-02T08:31:43;22.43;;;16.20;;
18084;SDS011;9169;44.492;11.372;2023-04-02T08:34:12;23.30;;;18.87;;
18084;SDS011;9169;44.492;11.372;2023-04-02T08:36:42;28.07;;;18.00;;
18084;SDS011;9169;44.492;11.372;2023-04-02T08:39:12;31.20;;;23.40;;
18084;SDS011;9169;44.492;11.372;2023-04-02T08:41:43;31.67;;;19.33;;
18084;SDS011;9169;44.492;11.372;2023-04-02T08:44:23;31.60;;;19.33;;
18084;SDS011;9169;44.492;11.372;2023-04-02T08:47:00;26.10;;;19.97;;
18084;SDS011;9169;44.492;11.372;2023-04-02T08:49:31;41.57;;;29.03;;
18084;SDS011;9169;44.492;11.372;2023-04-02T08:52:04;26.50;;;22.03;;
18084;SDS011;9169;44.492;11.372;2023-04-02T08:54:33;31.73;;;22.93;;
18084;SDS011;9169;44.492;11.372;2023-04-02T08:57:05;27.63;;;21.27;;
18084;SDS011;9169;44.492;11.372;2023-04-02T08:59:40;29.30;;;23.07;;
18084;SDS011;9169;44.492;11.372;2023-04-02T09:02:20;30.30;;;24.37;;
18084;SDS011;9169;44.492;11.372;2023-04-02T09:04:56;35.33;;;26.67;;
18084;SDS011;9169;44.492;11.372;2023-04-02T09:07:27;33.07;;;26.50;;
18084;SDS011;9169;44.492;11.372;2023-04-02T09:09:56;33.10;;;27.73;;
18084;SDS011;9169;44.492;11.372;2023-04-02T09:12:25;34.90;;;27.60;;
18084;SDS011;9169;44.492;11.372;2023-04-02T09:15:01;35.90;;;27.80;;
18084;SDS011;9169;44.492;11.372;2023-04-02T09:17:38;35.43;;;27.67;;
18084;SDS011;9169;44.492;11.372;2023-04-02T09:20:13;39.37;;;30.53;;
18084;SDS011;9169;44.492;11.372;2023-04-02T09:22:44;40.10;;;28.83;;
18084;SDS011;9169;44.492;11.372;2023-04-02T09:25:15;37.03;;;29.57;;
18084;SDS011;9169;44.492;11.372;2023-04-02T09:27:47;39.07;;;31.10;;
18084;SDS011;9169;44.492;11.372;2023-04-02T09:30:22;42.93;;;34.17;;
18084;SDS011;9169;44.492;11.372;2023-04-02T09:33:01;44.07;;;33.13;;
18084;SDS011;9169;44.492;11.372;2023-04-02T09:35:33;46.73;;;34.80;;
18084;SDS011;9169;44.492;11.372;2023-04-02T09:38:09;48.37;;;39.63;;
18084;SDS011;9169;44.492;11.372;2023-04-02T09:40:45;44.50;;;34.23;;
18084;SDS011;9169;44.492;11.372;2023-04-02T09:43:17;47.77;;;37.77;;
18084;SDS011;9169;44.492;11.372;2023-04-02T09:45:55;74.43;;;59.53;;
18084;SDS011;9169;44.492;11.372;2023-04-02T09:48:27;47.00;;;35.03;;
18084;SDS011;9169;44.492;11.372;2023-04-02T09:54:04;38.40;;;30.67;;
18084;SDS011;9169;44.492;11.372;2023-04-02T09:56:36;39.50;;;32.00;;
18084;SDS011;9169;44.492;11.372;2023-04-02T09:59:05;34.50;;;28.80;;
18084;SDS011;9169;44.492;11.372;2023-04-02T10:01:44;38.17;;;27.50;;
18084;SDS011;9169;44.492;11.372;2023-04-02T10:04:32;40.93;;;31.87;;
18084;SDS011;9169;44.492;11.372;2023-04-02T10:07:03;37.33;;;29.10;;
18084;SDS011;9169;44.492;11.372;2023-04-02T10:09:33;36.93;;;29.67;;
18084;SDS011;9169;44.492;11.372;2023-04-02T10:12:04;36.67;;;29.80;;
18084;SDS011;9169;44.492;11.372;2023-04-02T10:14:34;33.77;;;26.07;;
18084;SDS011;9169;44.492;11.372;2023-04-02T10:17:09;30.90;;;26.03;;
18084;SDS011;9169;44.492;11.372;2023-04-02T10:19:44;33.03;;;25.07;;
18084;SDS011;9169;44.492;11.372;2023-04-02T10:22:16;27.10;;;22.50;;
18084;SDS011;9169;44.492;11.372;2023-04-02T10:24:47;31.17;;;23.87;;
18084;SDS011;9169;44.492;11.372;2023-04-02T10:27:19;31.47;;;25.90;;
18084;SDS011;9169;44.492;11.372;2023-04-02T10:29:57;31.33;;;24.80;;
18084;SDS011;9169;44.492;11.372;2023-04-02T10:32:38;37.33;;;30.37;;
18084;SDS011;9169;44.492;11.372;2023-04-02T10:35:13;26.43;;;21.50;;
18084;SDS011;9169;44.492;11.372;2023-04-02T10:37:52;29.30;;;21.50;;
18084;SDS011;9169;44.492;11.372;2023-04-02T10:40:38;26.53;;;21.63;;
18084;SDS011;9169;44.492;11.372;2023-04-02T10:43:23;23.23;;;19.60;;
18084;SDS011;9169;44.492;11.372;2023-04-02T10:46:06;23.80;;;19.97;;
18084;SDS011;9169;44.492;11.372;2023-04-02T10:48:43;22.60;;;18.03;;
18084;SDS011;9169;44.492;11.372;2023-04-02T10:51:24;20.77;;;16.93;;
18084;SDS011;9169;44.492;11.372;2023-04-02T10:54:01;24.60;;;18.60;;
18084;SDS011;9169;44.492;11.372;2023-04-02T10:56:35;25.20;;;18.87;;
18084;SDS011;9169;44.492;11.372;2023-04-02T10:59:11;21.27;;;16.60;;
18084;SDS011;9169;44.492;11.372;2023-04-02T11:01:44;23.00;;;16.17;;
18084;SDS011;9169;44.492;11.372;2023-04-02T11:04:17;17.73;;;14.00;;
18084;SDS011;9169;44.492;11.372;2023-04-02T11:06:50;18.87;;;15.50;;
18084;SDS011;9169;44.492;11.372;2023-04-02T11:09:27;18.13;;;15.10;;
18084;SDS011;9169;44.492;11.372;2023-04-02T11:11:59;21.30;;;15.77;;
18084;SDS011;9169;44.492;11.372;2023-04-02T11:14:31;21.20;;;15.83;;
18084;SDS011;9169;44.492;11.372;2023-04-02T11:17:02;17.43;;;13.67;;
18084;SDS011;9169;44.492;11.372;2023-04-02T11:19:35;15.97;;;12.40;;
18084;SDS011;9169;44.492;11.372;2023-04-02T11:22:11;15.60;;;12.47;;
18084;SDS011;9169;44.492;11.372;2023-04-02T11:24:42;20.00;;;13.87;;
18084;SDS011;9169;44.492;11.372;2023-04-02T11:27:14;16.87;;;13.90;;
18084;SDS011;9169;44.492;11.372;2023-04-02T11:29:54;19.27;;;16.33;;
18084;SDS011;9169;44.492;11.372;2023-04-02T11:32:31;24.43;;;17.70;;
18084;SDS011;9169;44.492;11.372;2023-04-02T11:44:24;28.30;;;23.00;;
18084;SDS011;9169;44.492;11.372;2023-04-02T11:46:54;25.30;;;19.40;;
18084;SDS011;9169;44.492;11.372;2023-04-02T11:52:32;22.43;;;16.77;;
18084;SDS011;9169;44.492;11.372;2023-04-02T11:55:23;34.93;;;27.13;;
18084;SDS011;9169;44.492;11.372;2023-04-02T11:57:59;27.63;;;21.23;;
18084;SDS011;9169;44.492;11.372;2023-04-02T12:00:48;23.50;;;18.83;;
18084;SDS011;9169;44.492;11.372;2023-04-02T12:03:57;18.70;;;14.00;;
18084;SDS011;9169;44.492;11.372;2023-04-02T12:06:49;21.80;;;15.40;;
18084;SDS011;9169;44.492;11.372;2023-04-02T12:09:33;18.13;;;13.07;;
18084;SDS011;9169;44.492;11.372;2023-04-02T12:12:15;14.60;;;12.13;;
18084;SDS011;9169;44.492;11.372;2023-04-02T12:14:46;15.53;;;12.70;;
18084;SDS011;9169;44.492;11.372;2023-04-02T12:17:26;19.37;;;14.30;;
18084;SDS011;9169;44.492;11.372;2023-04-02T12:19:57;21.47;;;15.53;;
18084;SDS011;9169;44.492;11.372;2023-04-02T12:22:31;19.20;;;14.30;;
18084;SDS011;9169;44.492;11.372;2023-04-02T12:25:05;20.17;;;15.40;;
18084;SDS011;9169;44.492;11.372;2023-04-02T12:27:49;19.70;;;15.37;;
18084;SDS011;9169;44.492;11.372;2023-04-02T12:30:31;18.93;;;15.83;;
18084;SDS011;9169;44.492;11.372;2023-04-02T12:33:13;42.57;;;31.27;;
18084;SDS011;9169;44.492;11.372;2023-04-02T12:35:43;23.37;;;16.00;;
18084;SDS011;9169;44.492;11.372;2023-04-02T12:38:18;25.03;;;16.90;;
18084;SDS011;9169;44.492;11.372;2023-04-02T12:40:53;22.20;;;14.90;;
18084;SDS011;9169;44.492;11.372;2023-04-02T12:43:24;27.93;;;22.23;;
18084;SDS011;9169;44.492;11.372;2023-04-02T12:45:55;21.00;;;14.30;;
18084;SDS011;9169;44.492;11.372;2023-04-02T12:48:26;21.77;;;14.50;;
18084;SDS011;9169;44.492;11.372;2023-04-02T12:50:56;17.77;;;14.57;;
18084;SDS011;9169;44.492;11.372;2023-04-02T12:53:27;10.30;;;7.83;;
18084;SDS011;9169;44.492;11.372;2023-04-02T12:56:02;11.50;;;9.60;;
18084;SDS011;9169;44.492;11.372;2023-04-02T12:58:35;13.67;;;9.70;;
18084;SDS011;9169;44.492;11.372;2023-04-02T13:01:12;11.43;;;7.43;;
18084;SDS011;9169;44.492;11.372;2023-04-02T13:03:56;10.63;;;7.70;;
18084;SDS011;9169;44.492;11.372;2023-04-02T13:06:26;10.17;;;7.00;;
18084;SDS011;9169;44.492;11.372;2023-04-02T13:08:56;11.90;;;8.03;;
18084;SDS011;9169;44.492;11.372;2023-04-02T13:11:36;10.50;;;7.37;;
18084;SDS011;9169;44.492;11.372;2023-04-02T13:14:07;9.17;;;6.50;;
18084;SDS011;9169;44.492;11.372;2023-04-02T13:16:43;10.37;;;7.07;;
18084;SDS011;9169;44.492;11.372;2023-04-02T13:19:22;10.30;;;6.37;;
18084;SDS011;9169;44.492;11.372;2023-04-02T13:21:56;8.30;;;6.40;;
18084;SDS011;9169;44.492;11.372;2023-04-02T13:24:27;8.10;;;5.60;;
18084;SDS011;9169;44.492;11.372;2023-04-02T13:26:59;11.00;;;6.67;;
18084;SDS011;9169;44.492;11.372;2023-04-02T13:29:30;11.93;;;6.33;;
18084;SDS011;9169;44.492;11.372;2023-04-02T13:32:00;7.27;;;4.97;;
18084;SDS011;9169;44.492;11.372;2023-04-02T13:34:30;7.13;;;5.13;;
18084;SDS011;9169;44.492;11.372;2023-04-02T13:36:59;5.53;;;3.70;;
18084;SDS011;9169;44.492;11.372;2023-04-02T13:39:27;5.93;;;4.03;;
18084;SDS011;9169;44.492;11.372;2023-04-02T13:41:59;4.20;;;3.30;;
18084;SDS011;9169;44.492;11.372;2023-04-02T13:44:30;6.57;;;4.00;;
18084;SDS011;9169;44.492;11.372;2023-04-02T13:47:00;7.27;;;3.50;;
18084;SDS011;9169;44.492;11.372;2023-04-02T13:49:30;5.93;;;3.40;;
18084;SDS011;9169;44.492;11.372;2023-04-02T13:51:59;5.27;;;3.40;;
18084;SDS011;9169;44.492;11.372;2023-04-02T13:54:31;6.00;;;3.60;;
18084;SDS011;9169;44.492;11.372;2023-04-02T13:57:05;5.50;;;3.10;;
18084;SDS011;9169;44.492;11.372;2023-04-02T13:59:34;4.77;;;2.70;;
18084;SDS011;9169;44.492;11.372;2023-04-02T14:02:03;4.13;;;2.70;;
18084;SDS011;9169;44.492;11.372;2023-04-02T14:04:37;5.40;;;2.43;;
18084;SDS011;9169;44.492;11.372;2023-04-02T14:07:32;5.20;;;3.00;;
18084;SDS011;9169;44.492;11.372;2023-04-02T14:10:10;4.40;;;2.17;;
18084;SDS011;9169;44.492;11.372;2023-04-02T14:12:53;4.03;;;2.53;;
18084;SDS011;9169;44.492;11.372;2023-04-02T14:15:37;5.03;;;2.50;;
18084;SDS011;9169;44.492;11.372;2023-04-02T14:18:19;3.80;;;2.23;;
18084;SDS011;9169;44.492;11.372;2023-04-02T14:21:02;3.13;;;2.30;;
18084;SDS011;9169;44.492;11.372;2023-04-02T14:23:43;4.90;;;2.60;;
18084;SDS011;9169;44.492;11.372;2023-04-02T14:26:26;4.83;;;3.40;;
18084;SDS011;9169;44.492;11.372;2023-04-02T14:29:08;3.97;;;2.73;;
18084;SDS011;9169;44.492;11.372;2023-04-02T14:31:42;3.40;;;2.40;;
18084;SDS011;9169;44.492;11.372;2023-04-02T14:34:16;4.50;;;2.70;;
18084;SDS011;9169;44.492;11.372;2023-04-02T14:36:53;4.40;;;2.53;;
18084;SDS011;9169;44.492;11.372;2023-04-02T14:39:31;6.23;;;3.20;;
18084;SDS011;9169;44.492;11.372;2023-04-02T14:42:09;4.70;;;2.93;;
18084;SDS011;9169;44.492;11.372;2023-04-02T14:44:44;3.40;;;2.03;;
18084;SDS011;9169;44.492;11.372;2023-04-02T14:47:19;3.30;;;2.00;;
18084;SDS011;9169;44.492;11.372;2023-04-02T14:49:53;6.33;;;2.87;;
18084;SDS011;9169;44.492;11.372;2023-04-02T14:52:25;3.87;;;2.20;;
18084;SDS011;9169;44.492;11.372;2023-04-02T14:54:58;6.43;;;3.40;;
18084;SDS011;9169;44.492;11.372;2023-04-02T14:57:30;4.63;;;2.80;;
18084;SDS011;9169;44.492;11.372;2023-04-02T15:00:05;3.97;;;2.50;;
18084;SDS011;9169;44.492;11.372;2023-04-02T15:02:56;4.30;;;2.90;;
18084;SDS011;9169;44.492;11.372;2023-04-02T15:05:32;4.97;;;2.63;;
18084;SDS011;9169;44.492;11.372;2023-04-02T15:08:14;5.43;;;3.47;;
18084;SDS011;9169;44.492;11.372;2023-04-02T15:10:50;4.10;;;2.63;;
18084;SDS011;9169;44.492;11.372;2023-04-02T15:13:29;4.33;;;2.90;;
18084;SDS011;9169;44.492;11.372;2023-04-02T15:16:06;7.10;;;3.67;;
18084;SDS011;9169;44.492;11.372;2023-04-02T15:18:38;4.77;;;2.70;;
18084;SDS011;9169;44.492;11.372;2023-04-02T15:21:09;3.90;;;2.77;;
18084;SDS011;9169;44.492;11.372;2023-04-02T15:23:56;4.63;;;2.63;;
18084;SDS011;9169;44.492;11.372;2023-04-02T15:26:30;10.37;;;7.63;;
18084;SDS011;9169;44.492;11.372;2023-04-02T15:29:11;4.20;;;2.50;;
18084;SDS011;9169;44.492;11.372;2023-04-02T15:31:57;3.83;;;2.10;;
18084;SDS011;9169;44.492;11.372;2023-04-02T15:34:35;5.53;;;2.40;;
18084;SDS011;9169;44.492;11.372;2023-04-02T15:37:12;4.03;;;2.43;;